sensor_id;sensor_type;location;lat;lon;timestamp;pressure;altitude;pressure_sealevel;temperature;humidity
12475;BME280;6302;42.624;23.334;2023-08-08T00:01:39;93182.41;;;16.42;100.00
12475;BME280;6302;42.624;23.334;2023-08-08T00:04:08;93195.84;;;16.51;100.00
12475;BME280;6302;42.624;23.334;2023-08-08T00:06:35;93165.91;;;16.31;100.00
12475;BME280;6302;42.624;23.334;2023-08-08T00:09:01;93197.56;;;16.45;100.00
12475;BME280;6302;42.624;23.334;2023-08-08T00:11:29;93196.31;;;16.37;100.00
12475;BME280;6302;42.624;23.334;2023-08-08T00:13:57;93201.22;;;16.25;100.00
12475;BME280;6302;42.624;23.334;2023-08-08T00:16:24;93199.53;;;16.19;100.00
12475;BME280;6302;42.624;23.334;2023-08-08T00:18:51;93203.06;;;16.16;100.00
12475;BME280;6302;42.624;23.334;2023-08-08T00:21:19;93194.41;;;15.99;100.00
12475;BME280;6302;42.624;23.334;2023-08-08T00:23:46;93191.28;;;15.88;100.00
12475;BME280;6302;42.624;23.334;2023-08-08T00:26:12;93177.72;;;15.70;100.00
12475;BME280;6302;42.624;23.334;2023-08-08T00:28:39;93211.88;;;15.75;100.00
12475;BME280;6302;42.624;23.334;2023-08-08T00:31:07;93206.88;;;15.65;100.00
12475;BME280;6302;42.624;23.334;2023-08-08T00:33:34;93219.22;;;15.46;100.00
12475;BME280;6302;42.624;23.334;2023-08-08T00:36:01;93211.56;;;15.48;100.00
12475;BME280;6302;42.624;23.334;2023-08-08T00:38:28;93206.88;;;15.36;100.00
12475;BME280;6302;42.624;23.334;2023-08-08T00:40:55;93212.88;;;15.40;100.00
12475;BME280;6302;42.624;23.334;2023-08-08T00:43:22;93205.38;;;15.35;100.00
12475;BME280;6302;42.624;23.334;2023-08-08T00:45:48;93212.59;;;15.22;100.00
12475;BME280;6302;42.624;23.334;2023-08-08T00:48:17;93203.75;;;15.25;100.00
12475;BME280;6302;42.624;23.334;2023-08-08T00:50:45;93195.94;;;15.18;100.00
12475;BME280;6302;42.624;23.334;2023-08-08T00:53:14;93208.63;;;15.14;100.00
12475;BME280;6302;42.624;23.334;2023-08-08T00:55:41;93183.81;;;15.01;100.00
12475;BME280;6302;42.624;23.334;2023-08-08T00:58:08;93203.47;;;15.07;100.00
12475;BME280;6302;42.624;23.334;2023-08-08T01:00:35;93207.16;;;14.96;100.00
12475;BME280;6302;42.624;23.334;2023-08-08T01:03:02;93201.00;;;14.99;100.00
12475;BME280;6302;42.624;23.334;2023-08-08T01:05:36;93205.69;;;14.95;100.00
12475;BME280;6302;42.624;23.334;2023-08-08T01:08:06;93200.34;;;14.95;100.00
12475;BME280;6302;42.624;23.334;2023-08-08T01:10:35;93213.38;;;14.93;100.00
12475;BME280;6302;42.624;23.334;2023-08-08T01:13:05;93209.63;;;14.91;100.00
12475;BME280;6302;42.624;23.334;2023-08-08T01:15:34;93218.53;;;14.84;100.00
12475;BME280;6302;42.624;23.334;2023-08-08T01:18:03;93211.78;;;14.80;100.00
12475;BME280;6302;42.624;23.334;2023-08-08T01:20:32;93203.72;;;14.83;100.00
12475;BME280;6302;42.624;23.334;2023-08-08T01:23:12;93204.53;;;14.80;100.00
12475;BME280;6302;42.624;23.334;2023-08-08T01:25:41;93196.41;;;14.71;100.00
12475;BME280;6302;42.624;23.334;2023-08-08T01:28:08;93210.88;;;14.70;100.00
12475;BME280;6302;42.624;23.334;2023-08-08T01:30:35;93216.16;;;14.74;100.00
12475;BME280;6302;42.624;23.334;2023-08-08T01:33:03;93208.66;;;14.69;100.00
12475;BME280;6302;42.624;23.334;2023-08-08T01:35:35;93223.22;;;14.64;100.00
12475;BME280;6302;42.624;23.334;2023-08-08T01:38:09;93225.38;;;14.69;100.00
12475;BME280;6302;42.624;23.334;2023-08-08T01:40:38;93233.88;;;14.64;100.00
12475;BME280;6302;42.624;23.334;2023-08-08T01:43:08;93252.66;;;14.61;100.00
12475;BME280;6302;42.624;23.334;2023-08-08T01:45:35;93192.75;;;14.17;100.00
12475;BME280;6302;42.624;23.334;2023-08-08T01:48:06;93262.66;;;14.57;100.00
12475;BME280;6302;42.624;23.334;2023-08-08T01:50:34;93265.66;;;14.43;100.00
12475;BME280;6302;42.624;23.334;2023-08-08T01:53:00;93283.56;;;14.42;100.00
12475;BME280;6302;42.624;23.334;2023-08-08T01:55:27;93276.16;;;14.50;100.00
12475;BME280;6302;42.624;23.334;2023-08-08T01:57:54;93272.06;;;14.45;100.00
12475;BME280;6302;42.624;23.334;2023-08-08T02:00:22;93289.06;;;14.51;100.00
12475;BME280;6302;42.624;23.334;2023-08-08T02:02:49;93296.75;;;14.49;100.00
12475;BME280;6302;42.624;23.334;2023-08-08T02:05:16;93295.56;;;14.34;100.00
12475;BME280;6302;42.624;23.334;2023-08-08T02:07:43;93279.97;;;14.32;100.00
12475;BME280;6302;42.624;23.334;2023-08-08T02:10:09;93288.06;;;14.45;100.00
12475;BME280;6302;42.624;23.334;2023-08-08T02:12:36;93203.44;;;13.81;100.00
12475;BME280;6302;42.624;23.334;2023-08-08T02:15:04;93284.03;;;14.37;100.00
12475;BME280;6302;42.624;23.334;2023-08-08T02:17:32;93302.09;;;14.49;100.00
12475;BME280;6302;42.624;23.334;2023-08-08T02:19:59;93306.41;;;14.43;100.00
12475;BME280;6302;42.624;23.334;2023-08-08T02:22:26;93307.91;;;14.44;100.00
12475;BME280;6302;42.624;23.334;2023-08-08T02:24:52;93313.91;;;14.48;100.00
12475;BME280;6302;42.624;23.334;2023-08-08T02:27:19;93324.25;;;14.46;100.00
12475;BME280;6302;42.624;23.334;2023-08-08T02:29:46;93320.47;;;14.44;100.00
12475;BME280;6302;42.624;23.334;2023-08-08T02:32:13;93312.28;;;14.34;100.00
12475;BME280;6302;42.624;23.334;2023-08-08T02:34:41;93290.69;;;14.29;100.00
12475;BME280;6302;42.624;23.334;2023-08-08T02:37:07;93315.16;;;14.44;100.00
12475;BME280;6302;42.624;23.334;2023-08-08T02:39:34;93312.88;;;14.42;100.00
12475;BME280;6302;42.624;23.334;2023-08-08T02:42:01;93325.06;;;14.43;100.00
12475;BME280;6302;42.624;23.334;2023-08-08T02:44:28;93326.56;;;14.44;100.00
12475;BME280;6302;42.624;23.334;2023-08-08T02:46:55;93338.88;;;14.38;100.00
12475;BME280;6302;42.624;23.334;2023-08-08T02:49:21;93323.84;;;14.28;100.00
12475;BME280;6302;42.624;23.334;2023-08-08T02:51:49;93325.88;;;14.40;100.00
12475;BME280;6302;42.624;23.334;2023-08-08T02:54:16;93320.75;;;14.29;100.00
12475;BME280;6302;42.624;23.334;2023-08-08T02:56:43;93344.88;;;14.42;100.00
12475;BME280;6302;42.624;23.334;2023-08-08T02:59:10;93341.88;;;14.40;100.00
12475;BME280;6302;42.624;23.334;2023-08-08T03:01:37;93350.06;;;14.49;100.00
12475;BME280;6302;42.624;23.334;2023-08-08T03:04:05;93348.56;;;14.48;100.00
12475;BME280;6302;42.624;23.334;2023-08-08T03:06:32;93341.38;;;14.45;100.00
12475;BME280;6302;42.624;23.334;2023-08-08T03:09:00;93342.91;;;14.46;100.00
12475;BME280;6302;42.624;23.334;2023-08-08T03:11:27;93345.56;;;14.46;100.00
12475;BME280;6302;42.624;23.334;2023-08-08T03:13:53;93341.81;;;14.44;100.00
12475;BME280;6302;42.624;23.334;2023-08-08T03:16:20;93347.81;;;14.48;100.00
12475;BME280;6302;42.624;23.334;2023-08-08T03:18:47;93338.72;;;14.45;100.00
12475;BME280;6302;42.624;23.334;2023-08-08T03:21:14;93346.31;;;14.47;100.00
12475;BME280;6302;42.624;23.334;2023-08-08T03:23:40;93349.97;;;14.53;100.00
12475;BME280;6302;42.624;23.334;2023-08-08T03:26:09;93338.72;;;14.45;100.00
12475;BME280;6302;42.624;23.334;2023-08-08T03:28:35;93347.81;;;14.48;100.00
12475;BME280;6302;42.624;23.334;2023-08-08T03:31:02;93352.22;;;14.54;100.00
12475;BME280;6302;42.624;23.334;2023-08-08T03:33:29;93345.47;;;14.50;100.00
12475;BME280;6302;42.624;23.334;2023-08-08T03:35:56;93316.66;;;14.25;100.00
12475;BME280;6302;42.624;23.334;2023-08-08T03:38:23;93344.59;;;14.56;100.00
12475;BME280;6302;42.624;23.334;2023-08-08T03:40:50;93355.53;;;14.42;100.00
12475;BME280;6302;42.624;23.334;2023-08-08T03:43:18;93358.63;;;14.41;100.00
12475;BME280;6302;42.624;23.334;2023-08-08T03:45:45;93357.53;;;14.38;100.00
12475;BME280;6302;42.624;23.334;2023-08-08T03:48:12;93356.44;;;14.36;100.00
12475;BME280;6302;42.624;23.334;2023-08-08T03:50:39;93357.53;;;14.38;100.00
12475;BME280;6302;42.624;23.334;2023-08-08T03:53:06;93359.22;;;14.48;100.00
12475;BME280;6302;42.624;23.334;2023-08-08T03:55:33;93352.31;;;14.51;100.00
12475;BME280;6302;42.624;23.334;2023-08-08T03:57:59;93339.75;;;14.51;100.00
12475;BME280;6302;42.624;23.334;2023-08-08T04:00:27;93352.09;;;14.61;100.00
12475;BME280;6302;42.624;23.334;2023-08-08T04:02:54;93346.91;;;14.54;100.00
12475;BME280;6302;42.624;23.334;2023-08-08T04:05:21;93359.59;;;14.66;100.00
12475;BME280;6302;42.624;23.334;2023-08-08T04:07:48;93365.59;;;14.70;100.00
12475;BME280;6302;42.624;23.334;2023-08-08T04:10:15;93378.44;;;14.75;100.00
12475;BME280;6302;42.624;23.334;2023-08-08T04:12:41;93373.94;;;14.72;100.00
12475;BME280;6302;42.624;23.334;2023-08-08T04:15:09;93388.44;;;14.71;100.00
12475;BME280;6302;42.624;23.334;2023-08-08T04:17:37;93387.59;;;14.74;100.00
12475;BME280;6302;42.624;23.334;2023-08-08T04:20:05;93286.38;;;13.99;100.00
12475;BME280;6302;42.624;23.334;2023-08-08T04:22:32;93381.53;;;14.74;100.00
12475;BME280;6302;42.624;23.334;2023-08-08T04:24:59;93396.38;;;14.91;100.00
12475;BME280;6302;42.624;23.334;2023-08-08T04:27:25;93409.88;;;14.84;100.00
12475;BME280;6302;42.624;23.334;2023-08-08T04:29:52;93354.56;;;14.52;100.00
12475;BME280;6302;42.624;23.334;2023-08-08T04:32:19;93399.28;;;14.80;100.00
12475;BME280;6302;42.624;23.334;2023-08-08T04:34:47;93409.03;;;14.87;100.00
12475;BME280;6302;42.624;23.334;2023-08-08T04:37:14;93422.31;;;14.90;100.00
12475;BME280;6302;42.624;23.334;2023-08-08T04:39:41;93412.63;;;14.96;100.00
12475;BME280;6302;42.624;23.334;2023-08-08T04:42:07;93418.81;;;14.93;100.00
12475;BME280;6302;42.624;23.334;2023-08-08T04:44:34;93419.97;;;14.92;100.00
12475;BME280;6302;42.624;23.334;2023-08-08T04:47:01;93416.16;;;14.93;100.00
12475;BME280;6302;42.624;23.334;2023-08-08T04:49:28;93412.91;;;15.02;100.00
12475;BME280;6302;42.624;23.334;2023-08-08T04:51:56;93413.41;;;15.13;100.00
12475;BME280;6302;42.624;23.334;2023-08-08T04:54:23;93400.72;;;15.17;100.00
12475;BME280;6302;42.624;23.334;2023-08-08T04:56:50;93387.44;;;15.14;100.00
12475;BME280;6302;42.624;23.334;2023-08-08T04:59:17;93395.28;;;15.37;100.00
12475;BME280;6302;42.624;23.334;2023-08-08T05:01:43;93413.66;;;15.35;100.00
12475;BME280;6302;42.624;23.334;2023-08-08T05:04:10;93417.47;;;15.34;100.00
12475;BME280;6302;42.624;23.334;2023-08-08T05:06:37;93429.56;;;15.38;100.00
12475;BME280;6302;42.624;23.334;2023-08-08T05:09:08;93444.00;;;15.41;100.00
12475;BME280;6302;42.624;23.334;2023-08-08T05:11:34;93448.19;;;15.42;100.00
12475;BME280;6302;42.624;23.334;2023-08-08T05:14:01;93454.16;;;15.49;100.00
12475;BME280;6302;42.624;23.334;2023-08-08T05:16:28;93463.31;;;15.65;100.00
12475;BME280;6302;42.624;23.334;2023-08-08T05:18:55;93465.72;;;15.75;100.00
12475;BME280;6302;42.624;23.334;2023-08-08T05:21:21;93467.66;;;15.58;100.00
12475;BME280;6302;42.624;23.334;2023-08-08T05:23:48;93477.66;;;15.71;100.00
12475;BME280;6302;42.624;23.334;2023-08-08T05:26:16;93481.13;;;15.55;100.00
12475;BME280;6302;42.624;23.334;2023-08-08T05:28:43;93477.94;;;15.60;100.00
12475;BME280;6302;42.624;23.334;2023-08-08T05:31:10;93484.44;;;15.59;100.00
12475;BME280;6302;42.624;23.334;2023-08-08T05:33:37;93477.75;;;15.67;100.00
12475;BME280;6302;42.624;23.334;2023-08-08T05:36:04;93477.09;;;15.63;100.00
12475;BME280;6302;42.624;23.334;2023-08-08T05:38:31;93490.44;;;15.63;100.00
12475;BME280;6302;42.624;23.334;2023-08-08T05:40:57;93496.25;;;15.90;100.00
12475;BME280;6302;42.624;23.334;2023-08-08T05:43:26;93493.59;;;15.90;100.00
12475;BME280;6302;42.624;23.334;2023-08-08T05:45:53;93503.38;;;15.97;100.00
12475;BME280;6302;42.624;23.334;2023-08-08T05:48:19;93502.25;;;16.10;100.00
12475;BME280;6302;42.624;23.334;2023-08-08T05:50:46;93509.19;;;16.08;100.00
12475;BME280;6302;42.624;23.334;2023-08-08T05:53:13;93503.75;;;16.11;100.00
12475;BME280;6302;42.624;23.334;2023-08-08T05:55:40;93507.09;;;16.15;100.00
12475;BME280;6302;42.624;23.334;2023-08-08T05:58:07;93516.81;;;16.09;100.00
12475;BME280;6302;42.624;23.334;2023-08-08T06:00:36;93517.97;;;16.08;100.00
12475;BME280;6302;42.624;23.334;2023-08-08T06:03:03;93539.31;;;16.24;100.00
12475;BME280;6302;42.624;23.334;2023-08-08T06:05:30;93532.78;;;16.42;100.00
12475;BME280;6302;42.624;23.334;2023-08-08T06:07:56;93529.75;;;16.56;100.00
12475;BME280;6302;42.624;23.334;2023-08-08T06:10:23;93523.88;;;16.45;100.00
12475;BME280;6302;42.624;23.334;2023-08-08T06:12:50;93526.38;;;16.52;100.00
12475;BME280;6302;42.624;23.334;2023-08-08T06:15:17;93537.34;;;16.57;100.00
12475;BME280;6302;42.624;23.334;2023-08-08T06:17:46;93537.44;;;16.54;100.00
12475;BME280;6302;42.624;23.334;2023-08-08T06:20:12;93542.28;;;16.59;100.00
12475;BME280;6302;42.624;23.334;2023-08-08T06:22:40;93515.16;;;16.28;100.00
12475;BME280;6302;42.624;23.334;2023-08-08T06:25:07;93519.41;;;16.42;100.00
12475;BME280;6302;42.624;23.334;2023-08-08T06:27:34;93530.38;;;16.60;100.00
12475;BME280;6302;42.624;23.334;2023-08-08T06:30:00;93528.50;;;16.73;100.00
12475;BME280;6302;42.624;23.334;2023-08-08T06:32:28;93523.34;;;16.66;100.00
12475;BME280;6302;42.624;23.334;2023-08-08T06:34:56;93531.34;;;16.53;100.00
12475;BME280;6302;42.624;23.334;2023-08-08T06:37:23;93534.13;;;16.62;100.00
12475;BME280;6302;42.624;23.334;2023-08-08T06:39:50;93531.09;;;16.89;100.00
12475;BME280;6302;42.624;23.334;2023-08-08T06:42:16;93522.47;;;17.10;100.00
12475;BME280;6302;42.624;23.334;2023-08-08T06:44:44;93529.00;;;17.09;100.00
12475;BME280;6302;42.624;23.334;2023-08-08T06:47:11;93500.41;;;16.94;98.25
12475;BME280;6302;42.624;23.334;2023-08-08T06:49:38;93520.44;;;17.14;99.73
12475;BME280;6302;42.624;23.334;2023-08-08T06:52:06;93524.09;;;17.20;99.91
12475;BME280;6302;42.624;23.334;2023-08-08T06:54:33;93519.81;;;17.10;100.00
12475;BME280;6302;42.624;23.334;2023-08-08T06:56:59;93532.78;;;17.37;100.00
12475;BME280;6302;42.624;23.334;2023-08-08T06:59:27;93527.72;;;17.26;100.00
12475;BME280;6302;42.624;23.334;2023-08-08T07:01:54;93531.59;;;17.25;100.00
12475;BME280;6302;42.624;23.334;2023-08-08T07:04:21;93524.91;;;16.92;100.00
12475;BME280;6302;42.624;23.334;2023-08-08T07:06:48;93533.38;;;16.90;99.63
12475;BME280;6302;42.624;23.334;2023-08-08T07:09:16;93531.81;;;17.18;99.81
12475;BME280;6302;42.624;23.334;2023-08-08T07:11:43;93538.00;;;17.15;99.29
12475;BME280;6302;42.624;23.334;2023-08-08T07:14:10;93541.97;;;17.23;98.24
12475;BME280;6302;42.624;23.334;2023-08-08T07:16:37;93526.78;;;17.20;100.00
12475;BME280;6302;42.624;23.334;2023-08-08T07:19:04;93535.19;;;17.06;100.00
12475;BME280;6302;42.624;23.334;2023-08-08T07:21:31;93528.94;;;17.25;98.96
12475;BME280;6302;42.624;23.334;2023-08-08T07:23:58;93518.28;;;17.09;94.70
12475;BME280;6302;42.624;23.334;2023-08-08T07:26:26;93529.13;;;17.06;95.01
12475;BME280;6302;42.624;23.334;2023-08-08T07:28:53;93529.84;;;17.06;96.23
12475;BME280;6302;42.624;23.334;2023-08-08T07:31:19;93531.25;;;17.23;97.55
12475;BME280;6302;42.624;23.334;2023-08-08T07:33:46;93527.09;;;17.47;93.85
12475;BME280;6302;42.624;23.334;2023-08-08T07:36:13;93529.88;;;17.44;92.60
12475;BME280;6302;42.624;23.334;2023-08-08T07:38:40;93531.38;;;17.32;90.02
12475;BME280;6302;42.624;23.334;2023-08-08T07:41:07;93534.91;;;17.42;89.91
12475;BME280;6302;42.624;23.334;2023-08-08T07:43:35;93539.75;;;17.34;91.17
12475;BME280;6302;42.624;23.334;2023-08-08T07:46:01;93533.53;;;17.37;92.50
12475;BME280;6302;42.624;23.334;2023-08-08T07:48:28;93534.16;;;17.41;93.04
12475;BME280;6302;42.624;23.334;2023-08-08T07:50:55;93508.91;;;17.68;93.91
12475;BME280;6302;42.624;23.334;2023-08-08T07:53:22;93532.50;;;17.60;88.11
12475;BME280;6302;42.624;23.334;2023-08-08T07:55:49;93530.84;;;17.50;87.39
12475;BME280;6302;42.624;23.334;2023-08-08T07:58:15;93530.75;;;17.53;90.21
12475;BME280;6302;42.624;23.334;2023-08-08T08:00:43;93539.47;;;17.58;92.04
12475;BME280;6302;42.624;23.334;2023-08-08T08:03:11;93530.75;;;17.53;92.89
12475;BME280;6302;42.624;23.334;2023-08-08T08:05:38;93532.06;;;17.62;92.69
12475;BME280;6302;42.624;23.334;2023-08-08T08:08:05;93530.13;;;17.75;88.56
12475;BME280;6302;42.624;23.334;2023-08-08T08:10:32;93531.16;;;17.90;91.35
12475;BME280;6302;42.624;23.334;2023-08-08T08:12:59;93471.78;;;17.66;91.06
12475;BME280;6302;42.624;23.334;2023-08-08T08:15:26;93527.34;;;18.12;86.96
12475;BME280;6302;42.624;23.334;2023-08-08T08:17:54;93537.97;;;18.16;81.57
12475;BME280;6302;42.624;23.334;2023-08-08T08:20:21;93532.59;;;18.16;82.50
12475;BME280;6302;42.624;23.334;2023-08-08T08:22:48;93529.59;;;18.14;82.82
12475;BME280;6302;42.624;23.334;2023-08-08T08:25:15;93526.38;;;18.19;81.49
12475;BME280;6302;42.624;23.334;2023-08-08T08:27:42;93532.44;;;18.32;80.53
12475;BME280;6302;42.624;23.334;2023-08-08T08:30:09;93500.97;;;18.11;81.10
12475;BME280;6302;42.624;23.334;2023-08-08T08:32:37;93526.41;;;18.41;84.29
12475;BME280;6302;42.624;23.334;2023-08-08T08:35:06;93524.41;;;18.66;81.59
12475;BME280;6302;42.624;23.334;2023-08-08T08:37:34;93534.69;;;18.68;79.40
12475;BME280;6302;42.624;23.334;2023-08-08T08:40:01;93515.00;;;18.49;75.98
12475;BME280;6302;42.624;23.334;2023-08-08T08:42:31;93526.41;;;18.41;78.40
12475;BME280;6302;42.624;23.334;2023-08-08T08:44:59;93524.63;;;18.59;81.80
12475;BME280;6302;42.624;23.334;2023-08-08T08:47:29;93526.69;;;18.55;81.08
12475;BME280;6302;42.624;23.334;2023-08-08T08:49:57;93527.16;;;18.41;79.08
12475;BME280;6302;42.624;23.334;2023-08-08T08:52:25;93536.22;;;18.22;81.34
12475;BME280;6302;42.624;23.334;2023-08-08T08:54:53;93524.00;;;18.55;78.36
12475;BME280;6302;42.624;23.334;2023-08-08T08:57:21;93513.34;;;18.64;77.75
12475;BME280;6302;42.624;23.334;2023-08-08T08:59:48;93531.44;;;18.95;76.69
12475;BME280;6302;42.624;23.334;2023-08-08T09:02:15;93523.31;;;19.07;79.32
12475;BME280;6302;42.624;23.334;2023-08-08T09:04:44;93538.41;;;19.14;78.02
12475;BME280;6302;42.624;23.334;2023-08-08T09:07:12;93535.63;;;18.96;78.08
12475;BME280;6302;42.624;23.334;2023-08-08T09:09:42;93534.81;;;19.08;80.73
12475;BME280;6302;42.624;23.334;2023-08-08T09:12:10;93511.88;;;18.94;76.91
12475;BME280;6302;42.624;23.334;2023-08-08T09:14:40;93535.25;;;18.84;78.62
12475;BME280;6302;42.624;23.334;2023-08-08T09:17:10;93539.44;;;18.64;76.46
12475;BME280;6302;42.624;23.334;2023-08-08T09:19:38;93526.44;;;18.62;74.91
12475;BME280;6302;42.624;23.334;2023-08-08T09:22:05;93531.81;;;18.84;75.81
12475;BME280;6302;42.624;23.334;2023-08-08T09:24:32;93530.44;;;18.79;77.09
12475;BME280;6302;42.624;23.334;2023-08-08T09:27:00;93539.50;;;18.51;77.93
12475;BME280;6302;42.624;23.334;2023-08-08T09:29:27;93536.44;;;18.62;76.35
12475;BME280;6302;42.624;23.334;2023-08-08T09:31:54;93530.81;;;18.69;73.88
12475;BME280;6302;42.624;23.334;2023-08-08T09:34:24;93547.28;;;19.02;73.17
12475;BME280;6302;42.624;23.334;2023-08-08T09:36:51;93532.75;;;19.21;77.90
12475;BME280;6302;42.624;23.334;2023-08-08T09:39:18;93537.19;;;19.06;78.15
12475;BME280;6302;42.624;23.334;2023-08-08T09:41:46;93541.25;;;18.89;75.75
12475;BME280;6302;42.624;23.334;2023-08-08T09:44:14;93546.88;;;19.03;75.76
12475;BME280;6302;42.624;23.334;2023-08-08T09:46:41;93544.31;;;19.00;75.83
12475;BME280;6302;42.624;23.334;2023-08-08T09:49:10;93555.91;;;18.97;77.57
12475;BME280;6302;42.624;23.334;2023-08-08T09:51:37;93560.78;;;18.89;76.91
12475;BME280;6302;42.624;23.334;2023-08-08T09:54:05;93550.91;;;18.64;74.93
12475;BME280;6302;42.624;23.334;2023-08-08T09:56:33;93546.56;;;18.79;76.02
12475;BME280;6302;42.624;23.334;2023-08-08T09:59:00;93552.47;;;18.96;73.70
12475;BME280;6302;42.624;23.334;2023-08-08T10:01:29;93506.16;;;18.83;76.06
12475;BME280;6302;42.624;23.334;2023-08-08T10:03:56;93512.88;;;19.09;76.95
12475;BME280;6302;42.624;23.334;2023-08-08T10:06:24;93535.78;;;19.23;71.86
12475;BME280;6302;42.624;23.334;2023-08-08T10:08:51;93539.69;;;19.31;70.77
12475;BME280;6302;42.624;23.334;2023-08-08T10:11:18;93555.19;;;19.27;70.74
12475;BME280;6302;42.624;23.334;2023-08-08T10:13:48;93566.66;;;19.40;70.67
12475;BME280;6302;42.624;23.334;2023-08-08T10:16:16;93555.84;;;19.62;71.34
12475;BME280;6302;42.624;23.334;2023-08-08T10:18:44;93538.72;;;19.77;68.14
12475;BME280;6302;42.624;23.334;2023-08-08T10:21:12;93545.34;;;19.94;67.05
12475;BME280;6302;42.624;23.334;2023-08-08T10:23:39;93536.94;;;19.92;71.42
12475;BME280;6302;42.624;23.334;2023-08-08T10:26:17;93536.72;;;20.18;68.67
12475;BME280;6302;42.624;23.334;2023-08-08T10:28:52;93540.28;;;20.05;68.04
12475;BME280;6302;42.624;23.334;2023-08-08T10:31:20;93534.25;;;19.83;68.51
12475;BME280;6302;42.624;23.334;2023-08-08T10:33:48;93537.69;;;19.84;69.61
12475;BME280;6302;42.624;23.334;2023-08-08T10:36:16;93527.56;;;19.97;66.95
12475;BME280;6302;42.624;23.334;2023-08-08T10:38:44;93522.06;;;20.09;65.18
12475;BME280;6302;42.624;23.334;2023-08-08T10:41:13;93517.13;;;20.08;67.45
12475;BME280;6302;42.624;23.334;2023-08-08T10:43:48;93512.34;;;20.12;66.21
12475;BME280;6302;42.624;23.334;2023-08-08T10:46:23;93509.41;;;20.28;66.18
12475;BME280;6302;42.624;23.334;2023-08-08T10:48:53;93509.09;;;20.26;64.77
12475;BME280;6302;42.624;23.334;2023-08-08T10:51:20;93511.63;;;20.30;63.81
12475;BME280;6302;42.624;23.334;2023-08-08T10:53:51;93490.03;;;19.93;63.48
12475;BME280;6302;42.624;23.334;2023-08-08T10:56:18;93503.44;;;20.24;64.73
12475;BME280;6302;42.624;23.334;2023-08-08T10:58:48;93513.59;;;20.56;63.18
12475;BME280;6302;42.624;23.334;2023-08-08T11:01:15;93518.06;;;20.59;63.12
12475;BME280;6302;42.624;23.334;2023-08-08T11:03:43;93513.13;;;20.58;63.59
12475;BME280;6302;42.624;23.334;2023-08-08T11:06:11;93505.50;;;20.38;64.24
12475;BME280;6302;42.624;23.334;2023-08-08T11:08:38;93498.16;;;20.30;66.79
12475;BME280;6302;42.624;23.334;2023-08-08T11:11:05;93496.84;;;20.34;65.54
12475;BME280;6302;42.624;23.334;2023-08-08T11:13:33;93491.00;;;20.63;65.44
12475;BME280;6302;42.624;23.334;2023-08-08T11:16:00;93498.72;;;20.97;63.78
12475;BME280;6302;42.624;23.334;2023-08-08T11:18:28;93504.41;;;20.99;60.49
12475;BME280;6302;42.624;23.334;2023-08-08T11:20:55;93488.97;;;21.09;58.42
12475;BME280;6302;42.624;23.334;2023-08-08T11:23:23;93505.25;;;21.23;60.40
12475;BME280;6302;42.624;23.334;2023-08-08T11:25:50;93496.16;;;21.12;60.43
12475;BME280;6302;42.624;23.334;2023-08-08T11:28:17;93488.84;;;20.94;60.43
12475;BME280;6302;42.624;23.334;2023-08-08T11:30:45;93487.63;;;21.04;60.23
12475;BME280;6302;42.624;23.334;2023-08-08T11:33:13;93486.75;;;21.07;60.25
12475;BME280;6302;42.624;23.334;2023-08-08T11:35:43;93487.75;;;21.28;58.55
12475;BME280;6302;42.624;23.334;2023-08-08T11:38:12;93492.22;;;21.31;55.55
12475;BME280;6302;42.624;23.334;2023-08-08T11:40:42;93491.91;;;21.29;56.40
12475;BME280;6302;42.624;23.334;2023-08-08T11:43:09;93482.78;;;21.35;56.94
12475;BME280;6302;42.624;23.334;2023-08-08T11:45:37;93475.53;;;21.42;56.98
12475;BME280;6302;42.624;23.334;2023-08-08T11:48:04;93484.16;;;21.22;58.06
12475;BME280;6302;42.624;23.334;2023-08-08T11:50:31;93478.00;;;21.30;59.29
12475;BME280;6302;42.624;23.334;2023-08-08T11:52:59;93492.72;;;21.11;59.31
12475;BME280;6302;42.624;23.334;2023-08-08T11:55:29;93463.88;;;20.85;61.78
12475;BME280;6302;42.624;23.334;2023-08-08T11:57:58;93474.78;;;21.08;61.50
12475;BME280;6302;42.624;23.334;2023-08-08T12:00:29;93473.94;;;21.35;58.27
12475;BME280;6302;42.624;23.334;2023-08-08T12:02:57;93469.88;;;21.39;58.80
12475;BME280;6302;42.624;23.334;2023-08-08T12:05:24;93475.47;;;21.27;57.76
12475;BME280;6302;42.624;23.334;2023-08-08T12:07:51;93474.16;;;21.04;57.95
12475;BME280;6302;42.624;23.334;2023-08-08T12:10:19;93477.91;;;20.98;59.63
12475;BME280;6302;42.624;23.334;2023-08-08T12:12:51;93464.44;;;21.07;58.64
12475;BME280;6302;42.624;23.334;2023-08-08T12:15:20;93475.59;;;21.32;58.84
12475;BME280;6302;42.624;23.334;2023-08-08T12:17:46;93477.06;;;21.33;57.66
12475;BME280;6302;42.624;23.334;2023-08-08T12:20:14;93469.88;;;21.39;59.84
12475;BME280;6302;42.624;23.334;2023-08-08T12:22:41;93457.28;;;21.69;58.94
12475;BME280;6302;42.624;23.334;2023-08-08T12:25:08;93457.59;;;21.95;56.11
12475;BME280;6302;42.624;23.334;2023-08-08T12:27:35;93462.72;;;21.93;57.44
12475;BME280;6302;42.624;23.334;2023-08-08T12:30:02;93458.16;;;22.23;56.19
12475;BME280;6302;42.624;23.334;2023-08-08T12:32:30;93467.72;;;22.47;54.64
12475;BME280;6302;42.624;23.334;2023-08-08T12:34:58;93459.63;;;22.47;53.82
12475;BME280;6302;42.624;23.334;2023-08-08T12:37:25;93457.28;;;22.40;53.38
12475;BME280;6302;42.624;23.334;2023-08-08T12:39:52;93457.19;;;22.11;54.11
12475;BME280;6302;42.624;23.334;2023-08-08T12:42:18;93456.44;;;22.34;52.73
12475;BME280;6302;42.624;23.334;2023-08-08T12:44:45;93451.44;;;22.18;53.48
12475;BME280;6302;42.624;23.334;2023-08-08T12:47:16;93450.25;;;21.95;53.94
12475;BME280;6302;42.624;23.334;2023-08-08T12:49:44;93449.28;;;22.08;56.76
12475;BME280;6302;42.624;23.334;2023-08-08T12:52:11;93450.13;;;22.14;55.48
12475;BME280;6302;42.624;23.334;2023-08-08T12:54:38;93449.91;;;22.26;54.96
12475;BME280;6302;42.624;23.334;2023-08-08T12:57:05;93448.88;;;22.24;55.42